createdAt,value
2018-07-25T00:00:51.823Z,9.60
2018-07-25T00:03:20.185Z,10.13
2018-07-25T00:05:48.506Z,9.47
2018-07-25T00:08:16.859Z,8.77
2018-07-25T00:10:48.972Z,9.03
2018-07-25T00:13:17.788Z,9.33
2018-07-25T00:15:46.096Z,8.57
2018-07-25T00:18:14.445Z,9.20
2018-07-25T00:20:42.763Z,9.03
2018-07-25T00:23:11.107Z,10.13
2018-07-25T00:25:39.415Z,9.10
2018-07-25T00:28:07.929Z,9.10
2018-07-25T00:30:36.291Z,9.97
2018-07-25T00:33:04.637Z,9.30
2018-07-25T00:35:32.975Z,10.50
2018-07-25T00:38:01.273Z,9.30
2018-07-25T00:40:29.600Z,9.77
2018-07-25T00:42:57.932Z,10.43
2018-07-25T00:45:26.263Z,9.97
2018-07-25T00:47:54.576Z,9.50
2018-07-25T00:50:22.900Z,9.47
2018-07-25T00:52:51.239Z,9.90
2018-07-25T00:55:19.585Z,10.47
2018-07-25T00:57:47.900Z,9.63
2018-07-25T01:00:17.887Z,10.80
2018-07-25T01:02:46.900Z,11.17
2018-07-25T01:05:15.428Z,11.13
2018-07-25T01:07:43.743Z,12.43
2018-07-25T01:10:12.075Z,11.47
2018-07-25T01:12:40.372Z,11.60
2018-07-25T01:15:09.453Z,11.33
2018-07-25T01:17:38.151Z,11.00
2018-07-25T01:20:06.994Z,11.43
2018-07-25T01:22:35.318Z,11.23
2018-07-25T01:25:03.848Z,11.40
2018-07-25T01:27:32.368Z,14.90
2018-07-25T01:30:00.807Z,13.20
2018-07-25T01:32:29.163Z,11.13
2018-07-25T01:34:57.500Z,12.20
2018-07-25T01:37:25.821Z,10.90
2018-07-25T01:39:54.164Z,11.20
2018-07-25T01:42:22.456Z,10.97
2018-07-25T01:44:50.773Z,11.17
2018-07-25T01:47:19.196Z,10.47
2018-07-25T01:49:47.554Z,10.60
2018-07-25T01:52:15.863Z,11.00
2018-07-25T01:54:44.472Z,10.40
2018-07-25T01:57:12.791Z,11.20
2018-07-25T01:59:41.109Z,10.43
2018-07-25T02:02:09.482Z,12.80
2018-07-25T02:04:37.799Z,10.20
2018-07-25T02:07:06.163Z,12.30
2018-07-25T02:09:34.495Z,10.80
2018-07-25T02:12:02.801Z,12.17
2018-07-25T02:14:31.129Z,14.30
2018-07-25T02:16:59.455Z,13.70
2018-07-25T02:19:27.831Z,14.50
2018-07-25T02:21:56.121Z,14.30
2018-07-25T02:24:24.448Z,12.97
2018-07-25T02:26:52.772Z,11.63
2018-07-25T02:29:21.083Z,12.10
2018-07-25T02:31:49.422Z,11.53
2018-07-25T02:34:19.827Z,12.90
2018-07-25T02:36:48.541Z,14.47
2018-07-25T02:39:16.851Z,12.40
2018-07-25T02:41:45.656Z,13.00
2018-07-25T02:44:14.567Z,12.63
2018-07-25T02:46:42.924Z,13.60
2018-07-25T02:49:11.383Z,17.00
2018-07-25T02:51:39.727Z,13.57
2018-07-25T02:54:08.279Z,12.60
2018-07-25T02:56:36.618Z,13.53
2018-07-25T02:59:05.307Z,12.27
2018-07-25T03:01:34.126Z,12.87
2018-07-25T03:04:02.475Z,13.70
2018-07-25T03:06:30.845Z,15.50
2018-07-25T03:08:59.170Z,13.80
2018-07-25T03:11:27.516Z,12.50
2018-07-25T03:13:55.821Z,14.20
2018-07-25T03:16:24.167Z,13.17
2018-07-25T03:18:52.489Z,12.10
2018-07-25T03:21:20.820Z,12.40
2018-07-25T03:23:49.142Z,13.10
2018-07-25T03:26:17.479Z,13.27
2018-07-25T03:28:45.806Z,13.43
2018-07-25T03:31:14.150Z,14.27
2018-07-25T03:33:42.466Z,12.70
2018-07-25T03:36:10.805Z,12.43
2018-07-25T03:38:39.113Z,13.40
2018-07-25T03:41:07.693Z,13.80
2018-07-25T03:43:36.005Z,14.77
2018-07-25T03:46:04.468Z,15.57
2018-07-25T03:48:32.783Z,16.07
2018-07-25T03:51:01.126Z,14.53
2018-07-25T03:53:29.449Z,13.87
2018-07-25T03:55:57.785Z,14.47
2018-07-25T03:58:26.115Z,14.87
2018-07-25T04:00:54.440Z,16.43
2018-07-25T04:03:22.761Z,15.03
2018-07-25T04:05:51.095Z,15.27
2018-07-25T04:08:19.481Z,14.73
2018-07-25T04:10:48.249Z,14.87
2018-07-25T04:13:17.138Z,14.33
2018-07-25T04:15:45.472Z,15.90
2018-07-25T04:18:13.769Z,17.50
2018-07-25T04:20:42.105Z,16.47
2018-07-25T04:23:10.429Z,15.40
2018-07-25T04:25:38.787Z,16.07
2018-07-25T04:28:07.111Z,14.93
2018-07-25T04:30:35.448Z,16.33
2018-07-25T04:33:03.776Z,15.67
2018-07-25T04:35:32.073Z,16.50
2018-07-25T04:38:00.414Z,15.40
2018-07-25T04:40:28.712Z,15.90
2018-07-25T04:42:57.051Z,15.30
2018-07-25T04:45:25.409Z,15.70
2018-07-25T04:47:53.763Z,16.07
2018-07-25T04:50:22.076Z,15.03
2018-07-25T04:52:50.414Z,14.83
2018-07-25T04:55:18.720Z,16.30
2018-07-25T04:57:47.056Z,14.83
2018-07-25T05:00:15.385Z,15.63
2018-07-25T05:02:43.779Z,15.63
2018-07-25T05:05:12.084Z,15.37
2018-07-25T05:07:40.431Z,16.23
2018-07-25T05:10:08.746Z,15.80
2018-07-25T05:12:37.129Z,16.97
2018-07-25T05:15:06.341Z,16.50
2018-07-25T05:17:34.672Z,18.23
2018-07-25T05:20:03.046Z,17.80
2018-07-25T05:22:31.388Z,17.53
2018-07-25T05:24:59.739Z,16.43
2018-07-25T05:27:28.109Z,17.67
2018-07-25T05:29:56.515Z,17.43
2018-07-25T05:32:24.847Z,17.03
2018-07-25T05:34:53.157Z,17.43
2018-07-25T05:37:21.495Z,18.47
2018-07-25T05:39:49.819Z,18.13
2018-07-25T05:42:17.896Z,17.23
2018-07-25T05:44:46.265Z,17.57
2018-07-25T05:47:14.604Z,18.30
2018-07-25T05:49:42.923Z,16.33
2018-07-25T05:52:11.294Z,17.90
2018-07-25T05:54:39.700Z,16.83
2018-07-25T05:57:08.020Z,18.83
2018-07-25T05:59:36.329Z,16.77
2018-07-25T06:02:04.773Z,16.87
2018-07-25T06:04:33.081Z,16.73
2018-07-25T06:07:01.420Z,18.37
2018-07-25T06:09:29.763Z,16.40
2018-07-25T06:11:58.164Z,19.13
2018-07-25T06:14:26.225Z,15.87
2018-07-25T06:16:54.549Z,17.60
2018-07-25T06:19:23.016Z,16.77
2018-07-25T06:21:51.521Z,18.00
2018-07-25T06:24:19.842Z,16.83
2018-07-25T06:26:48.203Z,16.50
2018-07-25T06:29:16.505Z,17.50
2018-07-25T06:31:44.907Z,16.90
2018-07-25T06:34:13.239Z,17.03
2018-07-25T06:36:41.575Z,17.70
2018-07-25T06:39:11.811Z,17.00
2018-07-25T06:41:40.284Z,17.30
2018-07-25T06:44:09.414Z,18.93
2018-07-25T06:46:37.805Z,16.10
2018-07-25T06:49:06.954Z,17.80
2018-07-25T06:51:35.300Z,17.27
2018-07-25T06:54:03.697Z,16.13
2018-07-25T06:56:32.245Z,18.77
2018-07-25T06:59:00.587Z,17.97
2018-07-25T07:01:29.457Z,17.77
2018-07-25T07:03:57.789Z,16.43
2018-07-25T07:06:26.109Z,16.73
2018-07-25T07:08:54.447Z,16.37
2018-07-25T07:11:22.875Z,17.60
2018-07-25T07:13:51.604Z,18.90
2018-07-25T07:16:19.919Z,16.53
2018-07-25T07:18:48.263Z,17.67
2018-07-25T07:21:16.575Z,17.47
2018-07-25T07:23:44.931Z,17.53
2018-07-25T07:26:13.236Z,17.77
2018-07-25T07:28:41.567Z,17.07
2018-07-25T07:31:09.895Z,16.80
2018-07-25T07:33:38.212Z,16.17
2018-07-25T07:36:06.528Z,16.93
2018-07-25T07:38:34.859Z,15.87
2018-07-25T07:41:03.160Z,16.90
2018-07-25T07:43:31.528Z,15.70
2018-07-25T07:45:59.847Z,15.03
2018-07-25T07:48:28.727Z,16.03
2018-07-25T07:50:57.049Z,15.47
2018-07-25T07:53:25.490Z,15.30
2018-07-25T07:55:53.805Z,15.10
2018-07-25T07:58:22.150Z,15.50
2018-07-25T08:00:50.521Z,15.30
2018-07-25T08:03:18.884Z,14.90
2018-07-25T08:05:47.220Z,14.50
2018-07-25T08:08:15.590Z,15.00
2018-07-25T08:10:44.030Z,15.93
2018-07-25T08:13:12.280Z,15.33
2018-07-25T08:15:40.593Z,15.40
2018-07-25T08:18:08.952Z,15.10
2018-07-25T08:20:37.569Z,12.97
2018-07-25T08:23:05.933Z,15.10
2018-07-25T08:25:34.519Z,15.57
2018-07-25T08:28:02.865Z,14.40
2018-07-25T08:30:31.202Z,14.67
2018-07-25T08:32:59.547Z,14.73
2018-07-25T08:35:27.875Z,14.03
2018-07-25T08:37:56.228Z,13.20
2018-07-25T08:40:24.550Z,13.73
2018-07-25T08:42:52.869Z,16.60
2018-07-25T08:45:21.228Z,14.73
2018-07-25T08:47:50.473Z,15.27
2018-07-25T08:50:18.812Z,16.10
2018-07-25T08:52:47.210Z,14.27
2018-07-25T08:55:15.528Z,15.73
2018-07-25T08:57:43.936Z,17.70
2018-07-25T09:00:12.242Z,14.60
2018-07-25T09:02:40.648Z,12.97
2018-07-25T09:05:08.980Z,14.17
2018-07-25T09:07:37.362Z,14.13
2018-07-25T09:10:05.711Z,12.73
2018-07-25T09:12:34.021Z,14.13
2018-07-25T09:15:02.346Z,12.33
2018-07-25T09:17:30.689Z,13.07
2018-07-25T09:19:59.035Z,12.20
2018-07-25T09:22:27.344Z,12.40
2018-07-25T09:24:55.687Z,13.03
2018-07-25T09:27:23.996Z,12.07
2018-07-25T09:29:52.343Z,10.63
2018-07-25T09:32:20.690Z,11.70
2018-07-25T09:34:49.047Z,14.23
2018-07-25T09:37:17.419Z,13.00
2018-07-25T09:39:45.807Z,10.77
2018-07-25T09:42:14.667Z,10.37
2018-07-25T09:44:43.037Z,10.97
2018-07-25T09:47:11.464Z,11.13
2018-07-25T09:49:39.827Z,11.63
2018-07-25T09:52:08.201Z,11.93
2018-07-25T09:54:36.532Z,10.40
2018-07-25T09:57:04.932Z,11.80
2018-07-25T09:59:33.275Z,10.57
2018-07-25T10:02:01.775Z,12.00
2018-07-25T10:04:30.105Z,13.03
2018-07-25T10:06:58.444Z,11.20
2018-07-25T10:09:26.789Z,12.07
2018-07-25T10:11:55.137Z,11.10
2018-07-25T10:14:24.292Z,11.20
2018-07-25T10:16:52.641Z,10.80
2018-07-25T10:19:21.346Z,11.30
2018-07-25T10:21:49.818Z,12.57
2018-07-25T10:24:18.255Z,11.20
2018-07-25T10:26:46.549Z,11.73
2018-07-25T10:29:14.885Z,11.60
2018-07-25T10:31:43.259Z,11.47
2018-07-25T10:34:11.868Z,12.23
2018-07-25T10:36:40.202Z,11.10
2018-07-25T10:39:09.473Z,11.83
2018-07-25T10:41:37.743Z,12.17
2018-07-25T10:44:06.429Z,10.47
2018-07-25T10:46:34.788Z,10.53
2018-07-25T10:49:03.166Z,11.23
2018-07-25T10:51:31.512Z,11.00
2018-07-25T10:53:59.835Z,11.50
2018-07-25T10:56:28.227Z,11.10
2018-07-25T10:58:56.667Z,11.10
2018-07-25T11:01:24.999Z,10.20
2018-07-25T11:03:53.430Z,11.60
2018-07-25T11:06:21.726Z,12.53
2018-07-25T11:08:50.085Z,11.53
2018-07-25T11:11:18.460Z,10.90
2018-07-25T11:13:46.865Z,12.97
2018-07-25T11:16:15.251Z,10.90
2018-07-25T11:18:43.631Z,9.40
2018-07-25T11:21:11.976Z,10.60
2018-07-25T11:23:40.303Z,10.23
2018-07-25T11:26:08.667Z,9.77
2018-07-25T11:28:36.987Z,8.40
2018-07-25T11:31:05.327Z,7.77
2018-07-25T11:33:33.639Z,8.90
2018-07-25T11:36:02.000Z,9.73
2018-07-25T11:38:30.319Z,9.97
2018-07-25T11:40:58.666Z,9.67
2018-07-25T11:43:26.977Z,10.10
2018-07-25T11:45:55.309Z,9.80
2018-07-25T11:48:23.619Z,8.87
2018-07-25T11:50:51.960Z,8.50
2018-07-25T11:53:20.261Z,8.57
2018-07-25T11:55:48.702Z,8.97
2018-07-25T11:58:16.968Z,9.57
2018-07-25T12:00:45.521Z,9.70
2018-07-25T12:03:13.832Z,9.43
2018-07-25T12:05:42.181Z,10.10
2018-07-25T12:08:10.494Z,8.80
2018-07-25T12:10:38.843Z,8.97
2018-07-25T12:13:07.203Z,8.23
2018-07-25T12:15:35.547Z,7.50
2018-07-25T12:18:03.915Z,7.43
2018-07-25T12:20:32.304Z,9.10
2018-07-25T12:23:00.649Z,7.90
2018-07-25T12:25:29.017Z,8.57
2018-07-25T12:27:57.354Z,8.30
2018-07-25T12:30:25.744Z,7.87
2018-07-25T12:32:54.081Z,7.70
2018-07-25T12:35:22.444Z,7.83
2018-07-25T12:37:50.774Z,8.33
2018-07-25T12:40:19.098Z,7.77
2018-07-25T12:42:47.487Z,7.50
2018-07-25T12:45:16.144Z,7.40
2018-07-25T12:47:44.595Z,8.10
2018-07-25T12:50:12.963Z,8.43
2018-07-25T12:52:41.387Z,9.33
2018-07-25T12:55:09.855Z,9.10
2018-07-25T12:57:38.211Z,8.13
2018-07-25T13:00:07.712Z,7.50
2018-07-25T13:02:36.079Z,7.97
2018-07-25T13:05:05.379Z,7.30
2018-07-25T13:07:33.719Z,7.13
2018-07-25T13:10:02.049Z,6.97
2018-07-25T13:12:30.412Z,7.80
2018-07-25T13:14:58.746Z,8.20
2018-07-25T13:17:27.181Z,7.43
2018-07-25T13:19:55.511Z,8.10
2018-07-25T13:22:23.602Z,7.60
2018-07-25T13:24:51.987Z,7.80
2018-07-25T13:27:20.313Z,9.20
2018-07-25T13:29:48.629Z,8.57
2018-07-25T13:32:16.982Z,8.40
2018-07-25T13:34:45.292Z,7.83
2018-07-25T13:37:13.705Z,7.77
2018-07-25T13:39:42.037Z,8.23
2018-07-25T13:42:10.431Z,8.33
2018-07-25T13:44:38.784Z,8.67
2018-07-25T13:47:07.138Z,8.17
2018-07-25T13:49:35.459Z,7.73
2018-07-25T13:52:03.850Z,7.43
2018-07-25T13:54:32.139Z,8.33
2018-07-25T13:57:00.476Z,7.57
2018-07-25T13:59:28.799Z,7.67
2018-07-25T14:01:57.165Z,6.63
2018-07-25T14:04:25.510Z,7.40
2018-07-25T14:06:53.857Z,6.30
2018-07-25T14:09:22.187Z,6.37
2018-07-25T14:11:50.579Z,5.77
2018-07-25T14:14:18.852Z,6.37
2018-07-25T14:16:47.205Z,6.53
2018-07-25T14:19:15.575Z,6.37
2018-07-25T14:21:43.935Z,7.10
2018-07-25T14:24:12.295Z,8.50
2018-07-25T14:26:40.668Z,8.20
2018-07-25T14:29:09.036Z,7.97
2018-07-25T14:31:37.354Z,7.50
2018-07-25T14:34:05.737Z,8.40
2018-07-25T14:36:34.041Z,8.50
2018-07-25T14:39:02.420Z,8.70
2018-07-25T14:41:30.742Z,8.50
2018-07-25T14:43:59.070Z,7.67
2018-07-25T14:46:27.402Z,6.83
2018-07-25T14:48:55.764Z,6.73
2018-07-25T14:51:24.196Z,7.20
2018-07-25T14:53:52.539Z,7.60
2018-07-25T14:56:21.067Z,7.33
2018-07-25T14:58:49.558Z,6.70
2018-07-25T15:01:17.978Z,6.43
2018-07-25T15:03:46.510Z,6.13
2018-07-25T15:06:14.837Z,6.03
2018-07-25T15:08:43.188Z,5.40
2018-07-25T15:11:11.528Z,5.40
2018-07-25T15:13:39.949Z,5.50
2018-07-25T15:16:08.286Z,5.73
2018-07-25T15:18:36.646Z,5.50
2018-07-25T15:21:05.006Z,5.33
2018-07-25T15:23:45.006Z,5.10
2018-07-25T15:26:13.309Z,5.27
2018-07-25T15:28:41.672Z,5.37
2018-07-25T15:31:10.035Z,4.90
2018-07-25T15:33:38.396Z,5.60
2018-07-25T15:36:06.738Z,4.83
2018-07-25T15:38:35.103Z,4.87
2018-07-25T15:41:03.584Z,4.27
2018-07-25T15:43:31.968Z,5.40
2018-07-25T15:46:00.306Z,5.63
2018-07-25T15:48:28.688Z,4.60
2018-07-25T15:50:56.725Z,5.30
2018-07-25T15:53:25.065Z,4.50
2018-07-25T15:55:53.376Z,5.97
2018-07-25T15:58:21.736Z,6.03
2018-07-25T16:00:50.085Z,5.67
2018-07-25T16:03:18.450Z,4.70
2018-07-25T16:05:46.811Z,5.47
2018-07-25T16:08:15.126Z,4.87
2018-07-25T16:10:43.479Z,5.50
2018-07-25T16:13:11.828Z,5.20
2018-07-25T16:15:40.159Z,5.20
2018-07-25T16:18:08.489Z,5.07
2018-07-25T16:20:36.805Z,5.20
2018-07-25T16:23:05.158Z,5.10
2018-07-25T16:25:33.476Z,4.87
2018-07-25T16:28:01.805Z,5.30
2018-07-25T16:30:30.145Z,5.27
2018-07-25T16:32:58.484Z,6.30
2018-07-25T16:35:26.821Z,5.33
2018-07-25T16:37:55.181Z,5.30
2018-07-25T16:40:23.564Z,5.43
2018-07-25T16:42:52.027Z,6.13
2018-07-25T16:45:20.349Z,5.87
2018-07-25T16:47:48.682Z,5.90
2018-07-25T16:50:17.001Z,5.83
2018-07-25T16:52:45.342Z,6.50
2018-07-25T16:55:13.673Z,7.30
2018-07-25T16:57:42.023Z,9.20
2018-07-25T17:00:10.378Z,6.80
2018-07-25T17:02:38.797Z,6.90
2018-07-25T17:05:07.123Z,8.30
2018-07-25T17:07:35.464Z,6.90
2018-07-25T17:10:03.916Z,6.80
2018-07-25T17:12:32.257Z,6.70
2018-07-25T17:15:00.643Z,6.57
2018-07-25T17:17:28.979Z,6.80
2018-07-25T17:19:57.317Z,8.10
2018-07-25T17:22:25.701Z,8.30
2018-07-25T17:24:54.009Z,8.73
2018-07-25T17:27:22.374Z,8.60
2018-07-25T17:29:50.721Z,9.57
2018-07-25T17:32:19.069Z,9.40
2018-07-25T17:34:47.529Z,9.60
2018-07-25T17:37:15.965Z,9.30
2018-07-25T17:39:44.445Z,8.67
2018-07-25T17:42:12.784Z,9.47
2018-07-25T17:44:41.197Z,7.87
2018-07-25T17:47:09.565Z,7.73
2018-07-25T17:49:37.977Z,7.60
2018-07-25T17:52:06.377Z,7.23
2018-07-25T17:54:34.723Z,7.50
2018-07-25T17:57:03.056Z,10.67
2018-07-25T17:59:31.423Z,10.83
2018-07-25T18:01:59.781Z,9.70
2018-07-25T18:04:28.159Z,10.80
2018-07-25T18:06:56.679Z,8.97
2018-07-25T18:09:25.089Z,9.70
2018-07-25T18:11:53.740Z,8.90
2018-07-25T18:14:22.107Z,7.90
2018-07-25T18:16:50.556Z,8.53
2018-07-25T18:19:18.903Z,7.80
2018-07-25T18:21:47.212Z,9.47
2018-07-25T18:24:15.559Z,8.50
2018-07-25T18:26:43.908Z,9.00
2018-07-25T18:29:12.295Z,7.43
2018-07-25T18:31:40.631Z,8.93
2018-07-25T18:34:08.981Z,8.90
2018-07-25T18:36:37.309Z,8.03
2018-07-25T18:39:07.929Z,8.87
2018-07-25T18:41:36.324Z,7.17
2018-07-25T18:44:04.683Z,9.00
2018-07-25T18:46:33.034Z,11.80
2018-07-25T18:49:01.396Z,8.57
2018-07-25T18:51:29.823Z,8.53
2018-07-25T18:53:58.128Z,8.60
2018-07-25T18:56:26.468Z,10.93
2018-07-25T18:58:54.802Z,8.10
2018-07-25T19:01:23.167Z,8.03
2018-07-25T19:03:51.496Z,8.77
2018-07-25T19:06:19.816Z,8.23
2018-07-25T19:08:48.113Z,8.90
2018-07-25T19:11:16.519Z,8.90
2018-07-25T19:13:50.195Z,8.20
2018-07-25T19:16:18.517Z,8.10
2018-07-25T19:18:46.850Z,8.43
2018-07-25T19:21:15.169Z,8.33
2018-07-25T19:23:44.506Z,8.77
2018-07-25T19:26:12.800Z,9.33
2018-07-25T19:28:41.097Z,9.23
2018-07-25T19:31:09.429Z,8.93
2018-07-25T19:33:37.740Z,8.00
2018-07-25T19:36:06.112Z,8.33
2018-07-25T19:38:34.459Z,12.43
2018-07-25T19:41:02.780Z,8.70
2018-07-25T19:43:31.169Z,8.77
2018-07-25T19:45:59.469Z,9.07
2018-07-25T19:48:27.778Z,9.17
2018-07-25T19:50:56.143Z,9.53
2018-07-25T19:53:24.445Z,8.60
2018-07-25T19:55:52.768Z,8.00
2018-07-25T19:58:21.079Z,8.37
2018-07-25T20:00:49.562Z,8.27
2018-07-25T20:03:17.846Z,9.13
2018-07-25T20:05:46.185Z,9.37
2018-07-25T20:08:14.499Z,8.97
2018-07-25T20:10:42.999Z,9.00
2018-07-25T20:13:11.305Z,9.47
2018-07-25T20:15:45.049Z,8.20
2018-07-25T20:18:13.369Z,7.90
2018-07-25T20:20:41.688Z,8.67
2018-07-25T20:23:10.003Z,7.80
2018-07-25T20:25:38.329Z,8.60
2018-07-25T20:28:06.646Z,8.47
2018-07-25T20:30:34.998Z,8.30
2018-07-25T20:33:03.304Z,7.57
2018-07-25T20:35:31.632Z,8.00
2018-07-25T20:37:59.955Z,8.17
2018-07-25T20:40:28.293Z,8.30
2018-07-25T20:42:56.616Z,8.17
2018-07-25T20:45:24.673Z,8.73
2018-07-25T20:47:52.978Z,7.23
2018-07-25T20:50:21.301Z,8.27
2018-07-25T20:52:49.621Z,7.93
2018-07-25T20:55:17.948Z,8.47
2018-07-25T20:57:46.484Z,9.07
2018-07-25T21:00:14.851Z,8.73
2018-07-25T21:02:43.185Z,7.20
2018-07-25T21:05:11.525Z,9.13
2018-07-25T21:07:39.838Z,7.33
2018-07-25T21:10:08.217Z,7.67
2018-07-25T21:12:36.555Z,6.93
2018-07-25T21:15:05.229Z,7.37
2018-07-25T21:17:33.549Z,7.30
2018-07-25T21:20:01.855Z,8.47
2018-07-25T21:22:30.180Z,9.20
2018-07-25T21:24:58.201Z,9.93
2018-07-25T21:27:26.566Z,8.43
2018-07-25T21:29:54.906Z,7.33
2018-07-25T21:32:23.285Z,7.27
2018-07-25T21:34:51.605Z,7.33
2018-07-25T21:37:19.942Z,7.27
2018-07-25T21:39:48.322Z,7.77
2018-07-25T21:42:16.669Z,8.17
2018-07-25T21:44:44.972Z,7.60
2018-07-25T21:47:13.297Z,8.97
2018-07-25T21:49:41.705Z,8.70
2018-07-25T21:52:10.030Z,7.43
2018-07-25T21:54:38.350Z,7.33
2018-07-25T21:57:06.701Z,7.63
2018-07-25T21:59:34.997Z,8.10
2018-07-25T22:02:03.379Z,7.67
2018-07-25T22:04:31.696Z,8.70
2018-07-25T22:07:00.032Z,8.67
2018-07-25T22:09:28.351Z,7.97
2018-07-25T22:11:56.681Z,8.57
2018-07-25T22:14:24.999Z,9.17
2018-07-25T22:16:53.347Z,7.73
2018-07-25T22:19:21.653Z,10.50
2018-07-25T22:21:49.973Z,8.63
2018-07-25T22:24:18.265Z,8.50
2018-07-25T22:26:46.584Z,9.40
2018-07-25T22:29:14.909Z,9.10
2018-07-25T22:31:43.275Z,10.00
2018-07-25T22:34:11.595Z,8.93
2018-07-25T22:36:39.943Z,8.67
2018-07-25T22:39:09.638Z,8.90
2018-07-25T22:41:38.204Z,10.10
2018-07-25T22:44:06.537Z,9.00
2018-07-25T22:46:34.876Z,9.50
2018-07-25T22:49:03.338Z,7.50
2018-07-25T22:51:31.691Z,8.53
2018-07-25T22:54:00.011Z,11.23
2018-07-25T22:56:28.345Z,11.67
2018-07-25T22:58:56.676Z,8.67
2018-07-25T23:01:24.991Z,8.73
2018-07-25T23:03:53.332Z,8.90
2018-07-25T23:06:21.352Z,8.03
2018-07-25T23:08:49.691Z,8.03
2018-07-25T23:11:18.021Z,8.80
2018-07-25T23:13:46.790Z,10.17
2018-07-25T23:16:16.623Z,9.90
2018-07-25T23:18:45.451Z,8.27
2018-07-25T23:21:13.767Z,10.43
2018-07-25T23:23:42.127Z,9.10
2018-07-25T23:26:10.439Z,8.43
2018-07-25T23:28:38.771Z,10.20
2018-07-25T23:31:07.117Z,9.17
2018-07-25T23:33:35.444Z,9.43
2018-07-25T23:36:03.737Z,8.77
2018-07-25T23:38:32.053Z,8.37
2018-07-25T23:41:00.370Z,8.43
2018-07-25T23:43:28.821Z,8.67
2018-07-25T23:45:57.113Z,9.80
2018-07-25T23:48:25.434Z,7.80
2018-07-25T23:50:53.474Z,9.20
2018-07-25T23:53:21.797Z,9.73
2018-07-25T23:55:50.107Z,10.13
2018-07-25T23:58:18.417Z,9.00
